Amf Ohare, Illinois
Current Conditions -  °F | °C
As of 3:51 PM on Monday 20 Oct 2014 (Local Time) from KORD Reporting Station
Broken Clouds Broken Clouds  
Wind Chill: 59°   Ceiling: 4300
Heat Index: 59°   Visibility: 10mi
Dew Point: 48°   Wind: 13mph
Humidity: 67%   Direction: 40°NE
Pressure: 29.87"   Gusts: NA
Location:  41.968°N, 87.8912°W
Report Text: KORD 202051Z 04011KT 10SM BKN043 15/09 A2987 RMK AO2 WSHFT 2037 SLP114 T01500089 53010 $
Loading
Personal Weather Stations






























Interactive Weather Map
Tropical Storm Tracking
New forecast layout! Learn more

10-Day Weather Forecast

Advertisements
Track Severe Weather on mobile